Time;durP1;ratioP1;P1;durP2;ratioP2;P2;SDS_P1;SDS_P2;PMS_P1;PMS_P2;Temp;Humidity;BMP_temperature;BMP_pressure;BME280_temperature;BME280_humidity;BME280_pressure;Samples;Min_cycle;Max_cycle;Signal;HPM_P1;HPM_P2
2020/12/26 07:13:54;;;;;;;5.82;2.30;;;14.50;73.40;;;;;;4990184;28;20050;-64
2020/12/26 07:16:39;;;;;;;8.43;2.67;;;14.60;73.60;;;;;;4998424;28;20034;-66
2020/12/26 07:19:21;;;;;;;7.20;2.60;;;14.50;73.50;;;;;;5009375;28;20014;-66
2020/12/26 07:25:11;;;;;;;12.20;2.85;;;14.50;74.20;;;;;;5004471;28;20049;-66
2020/12/26 07:27:40;;;;;;;8.27;2.58;;;14.60;74.20;;;;;;5009631;28;20030;-67
2020/12/26 07:30:15;;;;;;;6.70;2.10;;;14.50;74.10;;;;;;5007543;28;20026;-64
2020/12/26 07:32:42;;;;;;;8.57;2.85;;;14.60;74.20;;;;;;4997541;28;20026;-65
2020/12/26 07:35:29;;;;;;;5.72;2.03;;;14.60;74.10;;;;;;5010116;28;20135;-66
2020/12/26 07:37:58;;;;;;;6.47;2.17;;;14.60;74.10;;;;;;4998294;28;20490;-66
2020/12/26 07:40:27;;;;;;;8.80;2.15;;;14.60;74.00;;;;;;5005228;28;20038;-65
2020/12/26 07:42:53;;;;;;;10.40;3.38;;;14.60;74.00;;;;;;5007745;28;20557;-63
2020/12/26 07:45:24;;;;;;;9.82;2.25;;;14.60;74.10;;;;;;4994271;28;20042;-66
2020/12/26 07:47:55;;;;;;;8.10;2.33;;;14.60;74.10;;;;;;5005964;28;20121;-67
2020/12/26 07:50:22;;;;;;;8.50;2.30;;;14.70;74.10;;;;;;5003421;28;20030;-66
2020/12/26 07:52:50;;;;;;;9.98;2.30;;;14.60;74.10;;;;;;5011114;28;20033;-66
2020/12/26 07:55:16;;;;;;;6.85;2.40;;;14.70;74.10;;;;;;5012171;28;20030;-68
2020/12/26 07:57:42;;;;;;;6.30;2.20;;;14.70;74.20;;;;;;5013085;28;20684;-65
2020/12/26 08:00:08;;;;;;;9.52;2.72;;;14.60;74.20;;;;;;5021774;28;20099;-66
2020/12/26 08:02:34;;;;;;;11.52;4.10;;;14.60;73.70;;;;;;5034832;28;20030;-67
2020/12/26 08:05:00;;;;;;;10.55;5.65;;;14.60;72.90;;;;;;5016971;28;20068;-67
2020/12/26 08:07:32;;;;;;;16.63;9.32;;;14.60;72.90;;;;;;5010319;28;20110;-64
2020/12/26 08:09:58;;;;;;;12.18;5.45;;;14.60;71.50;;;;;;4994412;28;20019;-64
2020/12/26 08:12:24;;;;;;;11.38;4.80;;;14.70;72.50;;;;;;5004201;28;20025;-62
2020/12/26 08:14:57;;;;;;;9.07;4.80;;;14.70;71.30;;;;;;5013764;28;20037;-63
2020/12/26 08:17:23;;;;;;;13.65;4.20;;;14.80;71.20;;;;;;5013510;28;20034;-67
2020/12/26 08:19:55;;;;;;;13.57;4.40;;;14.80;71.10;;;;;;5013517;28;20092;-65
2020/12/26 08:22:21;;;;;;;10.07;3.72;;;14.80;70.70;;;;;;5013490;28;20501;-64
2020/12/26 08:24:47;;;;;;;9.70;3.38;;;14.80;70.80;;;;;;5013339;28;20038;-64
2020/12/26 08:27:14;;;;;;;11.57;3.47;;;14.80;70.90;;;;;;5013628;28;20028;-65
2020/12/26 08:29:40;;;;;;;7.40;3.30;;;14.80;70.90;;;;;;5013790;28;20018;-62
2020/12/26 08:32:09;;;;;;;9.15;3.72;;;14.80;71.00;;;;;;5011692;28;20083;-64
2020/12/26 08:34:41;;;;;;;9.73;3.22;;;14.80;71.00;;;;;;5013563;28;20590;-68
2020/12/26 08:37:20;;;;;;;6.82;3.00;;;14.80;71.10;;;;;;5012424;28;20030;-67
2020/12/26 08:39:52;;;;;;;7.72;3.17;;;14.80;71.20;;;;;;5013254;28;20054;-63
2020/12/26 08:42:20;;;;;;;10.32;3.40;;;14.80;71.50;;;;;;5014110;28;20032;-64
2020/12/26 08:44:46;;;;;;;9.40;3.30;;;14.80;71.30;;;;;;5026900;28;20270;-63
2020/12/26 08:47:11;;;;;;;9.68;3.10;;;14.80;71.30;;;;;;5008468;28;20698;-64
2020/12/26 08:49:44;;;;;;;8.20;3.65;;;14.80;71.80;;;;;;5012417;28;20025;-64
2020/12/26 08:52:11;;;;;;;7.65;4.18;;;14.80;71.90;;;;;;5012319;28;20108;-66
2020/12/26 08:54:37;;;;;;;9.50;3.13;;;14.80;71.80;;;;;;5012746;28;20021;-64
2020/12/26 08:57:18;;;;;;;8.82;3.10;;;14.80;72.20;;;;;;5017063;28;20044;-63
2020/12/26 08:59:43;;;;;;;10.20;3.88;;;14.80;72.40;;;;;;5014622;28;20555;-65
2020/12/26 09:02:11;;;;;;;9.68;3.15;;;14.80;72.40;;;;;;5017662;28;20034;-65
2020/12/26 09:04:37;;;;;;;36.60;29.10;;;14.80;72.60;;;;;;5013675;28;20029;-67
2020/12/26 09:07:18;;;;;;;24.17;18.00;;;14.80;72.70;;;;;;5017910;28;20019;-64
2020/12/26 09:09:44;;;;;;;12.60;7.70;;;14.80;72.70;;;;;;5015165;28;20025;-67
2020/12/26 09:12:13;;;;;;;10.95;6.78;;;14.80;73.20;;;;;;5015341;28;20030;-66
2020/12/26 09:14:39;;;;;;;13.63;6.68;;;14.80;72.70;;;;;;5020919;28;20033;-65
2020/12/26 09:17:05;;;;;;;11.13;6.63;;;14.80;72.70;;;;;;5011640;28;20080;-62
2020/12/26 09:19:44;;;;;;;11.38;5.85;;;14.90;72.90;;;;;;5016408;28;20021;-64
2020/12/26 09:22:11;;;;;;;13.55;8.77;;;14.90;72.50;;;;;;5011788;28;20022;-63
2020/12/26 09:24:37;;;;;;;11.77;7.18;;;14.90;72.40;;;;;;5016970;28;20030;-66
2020/12/26 09:27:03;;;;;;;13.60;6.88;;;15.00;72.40;;;;;;5015956;28;20056;-64
2020/12/26 09:29:28;;;;;;;11.30;6.13;;;15.00;72.20;;;;;;5012253;28;20026;-64
2020/12/26 09:31:54;;;;;;;15.18;7.25;;;15.00;72.20;;;;;;5010507;28;20053;-62
2020/12/26 09:34:22;;;;;;;11.30;5.55;;;15.00;72.10;;;;;;5019033;28;20093;-63
2020/12/26 09:37:02;;;;;;;12.63;5.47;;;15.10;72.10;;;;;;5014704;28;20065;-66
2020/12/26 09:39:28;;;;;;;9.00;5.03;;;15.10;71.80;;;;;;5017165;28;20029;-65
2020/12/26 09:41:53;;;;;;;11.10;6.38;;;15.10;71.90;;;;;;5011581;28;20093;-64
2020/12/26 09:44:19;;;;;;;10.60;5.07;;;15.00;71.60;;;;;;5004140;28;20406;-62
2020/12/26 09:46:45;;;;;;;15.13;5.25;;;15.10;71.40;;;;;;5003005;28;20383;-63
2020/12/26 09:49:10;;;;;;;11.85;5.13;;;15.20;71.90;;;;;;5004802;28;20491;-64
2020/12/26 09:51:36;;;;;;;12.57;6.78;;;15.10;71.80;;;;;;4996045;28;20026;-65
2020/12/26 09:54:03;;;;;;;11.07;4.90;;;15.20;71.90;;;;;;5015297;28;20502;-65
2020/12/26 09:56:28;;;;;;;13.95;5.03;;;15.10;71.80;;;;;;5011127;28;20073;-64
2020/12/26 09:58:54;;;;;;;11.45;4.85;;;15.10;71.90;;;;;;5001110;28;20026;-63
2020/12/26 10:01:21;;;;;;;11.95;5.75;;;15.20;71.80;;;;;;5000443;28;20590;-63
2020/12/26 10:03:48;;;;;;;11.57;6.63;;;15.20;71.70;;;;;;5011686;28;20054;-64
2020/12/26 10:06:16;;;;;;;10.50;6.63;;;15.20;71.50;;;;;;5010881;28;20017;-63
2020/12/26 10:08:43;;;;;;;16.27;6.35;;;15.20;71.80;;;;;;5006315;28;20038;-61
2020/12/26 10:11:09;;;;;;;14.32;6.32;;;15.10;71.40;;;;;;5004411;28;20029;-63
2020/12/26 10:13:35;;;;;;;15.48;7.20;;;15.20;71.80;;;;;;4998489;28;20403;-64
2020/12/26 10:16:00;;;;;;;41.08;31.02;;;15.20;71.50;;;;;;5004542;28;20025;-65
2020/12/26 10:18:26;;;;;;;25.42;11.63;;;15.20;71.40;;;;;;5014389;28;20041;-65
2020/12/26 10:20:51;;;;;;;29.02;9.00;;;15.30;71.70;;;;;;5001102;28;20070;-63
2020/12/26 10:23:17;;;;;;;22.38;9.20;;;15.30;71.70;;;;;;4995593;28;20027;-72
2020/12/26 10:25:42;;;;;;;20.30;9.52;;;15.30;72.00;;;;;;5002377;28;20796;-65
2020/12/26 10:28:08;;;;;;;20.83;8.00;;;15.40;72.20;;;;;;5013580;28;20105;-62
2020/12/26 10:30:33;;;;;;;21.67;7.80;;;15.50;72.10;;;;;;5017386;28;20057;-64
2020/12/26 10:32:59;;;;;;;20.15;8.48;;;15.50;71.80;;;;;;5012379;28;20417;-65
2020/12/26 10:35:24;;;;;;;18.27;7.35;;;15.40;71.70;;;;;;5014628;28;20034;-64
2020/12/26 10:37:50;;;;;;;17.00;7.47;;;15.50;71.80;;;;;;4994859;28;20041;-65
2020/12/26 10:40:16;;;;;;;26.40;11.43;;;15.40;71.60;;;;;;4995887;28;20031;-65
2020/12/26 10:42:41;;;;;;;20.30;10.10;;;15.40;71.40;;;;;;4994482;28;20036;-65
2020/12/26 10:45:07;;;;;;;22.80;8.75;;;15.50;71.70;;;;;;4993238;28;20026;-64
2020/12/26 10:47:32;;;;;;;19.58;8.50;;;15.50;72.00;;;;;;4998136;28;20025;-62
2020/12/26 10:49:58;;;;;;;22.73;10.00;;;15.60;72.50;;;;;;4995253;28;20065;-65
2020/12/26 10:52:23;;;;;;;23.48;8.32;;;15.60;72.70;;;;;;5001371;28;20022;-64
2020/12/26 10:54:49;;;;;;;18.20;8.27;;;15.70;73.50;;;;;;5000371;28;20092;-65
2020/12/26 10:57:15;;;;;;;20.98;7.65;;;15.70;73.40;;;;;;5003158;28;20469;-64
2020/12/26 10:59:40;;;;;;;21.45;6.85;;;15.70;73.40;;;;;;5000652;28;20034;-64
2020/12/26 11:02:06;;;;;;;18.38;7.30;;;15.70;73.80;;;;;;4989591;28;20704;-62
2020/12/26 11:04:31;;;;;;;16.17;7.57;;;15.70;73.40;;;;;;5000211;28;20029;-63
2020/12/26 11:06:57;;;;;;;18.98;6.70;;;15.70;73.40;;;;;;4994827;28;20022;-65
2020/12/26 11:09:22;;;;;;;17.58;6.90;;;15.60;73.30;;;;;;4999937;28;20459;-65
2020/12/26 11:11:49;;;;;;;15.00;8.07;;;15.70;73.70;;;;;;4995269;28;20030;-64
2020/12/26 11:14:15;;;;;;;15.15;6.75;;;15.60;73.20;;;;;;5003890;28;20026;-66
2020/12/26 11:16:41;;;;;;;23.83;7.03;;;15.70;73.50;;;;;;5006676;28;20490;-64
2020/12/26 11:19:06;;;;;;;22.88;6.32;;;15.60;73.30;;;;;;5001809;28;20034;-65
2020/12/26 11:21:32;;;;;;;19.10;6.80;;;15.70;73.30;;;;;;5009479;28;20401;-67
2020/12/26 11:23:57;;;;;;;23.13;6.45;;;15.60;73.10;;;;;;5010314;28;20026;-66
2020/12/26 11:26:23;;;;;;;15.23;5.95;;;15.60;73.10;;;;;;5000896;28;20022;-65
2020/12/26 11:28:48;;;;;;;25.40;6.50;;;15.60;73.00;;;;;;4991408;28;20100;-65
2020/12/26 11:31:23;;;;;;;27.95;8.02;;;15.50;73.10;;;;;;5001578;28;20026;-66
2020/12/26 11:33:49;;;;;;;17.55;7.05;;;15.50;72.60;;;;;;4997049;28;20044;-66
2020/12/26 11:36:24;;;;;;;15.98;6.72;;;15.50;72.60;;;;;;5011300;28;20022;-64
2020/12/26 11:38:49;;;;;;;20.02;5.97;;;15.50;72.30;;;;;;5011810;28;20034;-64
2020/12/26 11:41:20;;;;;;;18.13;5.75;;;15.50;72.40;;;;;;5009184;28;20466;-63
2020/12/26 11:43:46;;;;;;;22.85;6.40;;;15.50;72.30;;;;;;5000093;28;20041;-64
2020/12/26 11:46:12;;;;;;;17.52;5.03;;;15.50;72.20;;;;;;5008480;28;20021;-64
2020/12/26 11:48:38;;;;;;;16.67;5.07;;;15.60;72.20;;;;;;5006878;28;20026;-64
2020/12/26 11:51:05;;;;;;;11.43;4.55;;;15.60;72.10;;;;;;5003817;28;20033;-63
2020/12/26 11:53:31;;;;;;;15.15;4.72;;;15.70;72.00;;;;;;5008043;28;20129;-65
2020/12/26 11:55:57;;;;;;;17.42;5.60;;;15.70;71.60;;;;;;5004400;28;20122;-64
2020/12/26 11:58:23;;;;;;;14.63;5.28;;;15.60;71.60;;;;;;5002822;28;20426;-62
2020/12/26 12:00:53;;;;;;;19.30;6.30;;;15.60;71.70;;;;;;5001363;28;20032;-63
2020/12/26 12:03:19;;;;;;;12.50;5.78;;;15.60;71.50;;;;;;4993819;28;20459;-63
2020/12/26 12:05:45;;;;;;;20.00;6.57;;;15.50;71.20;;;;;;5016042;28;20030;-64
2020/12/26 12:08:10;;;;;;;13.52;7.05;;;15.60;71.40;;;;;;5010797;28;20659;-65
2020/12/26 12:10:36;;;;;;;28.42;22.67;;;15.60;70.70;;;;;;5005695;28;20022;-63
2020/12/26 12:13:02;;;;;;;20.17;6.95;;;15.60;70.90;;;;;;5009582;28;20025;-64
2020/12/26 12:15:28;;;;;;;25.73;9.70;;;15.60;70.80;;;;;;5005044;28;20494;-63
2020/12/26 12:17:53;;;;;;;19.67;7.50;;;15.70;71.00;;;;;;5007111;28;20072;-64
2020/12/26 12:20:19;;;;;;;21.52;6.82;;;15.70;71.00;;;;;;5013013;28;20034;-64
2020/12/26 12:22:44;;;;;;;31.60;7.65;;;15.70;70.50;;;;;;5004916;28;20045;-64
2020/12/26 12:25:10;;;;;;;23.70;6.40;;;15.90;70.60;;;;;;5007944;28;20418;-64
2020/12/26 12:27:36;;;;;;;21.67;6.63;;;15.90;69.90;;;;;;5002636;28;20102;-65
2020/12/26 12:30:01;;;;;;;31.73;15.70;;;16.00;70.10;;;;;;4996402;28;20027;-65
2020/12/26 12:32:27;;;;;;;26.38;10.52;;;16.00;70.10;;;;;;5005833;28;20022;-63
2020/12/26 12:34:52;;;;;;;18.70;8.13;;;16.00;70.20;;;;;;4996277;28;20141;-62
2020/12/26 12:37:18;;;;;;;18.30;7.18;;;15.90;70.40;;;;;;5000852;28;20547;-64
2020/12/26 12:39:43;;;;;;;21.13;8.07;;;16.00;70.50;;;;;;5000101;28;20125;-67
2020/12/26 12:42:09;;;;;;;26.83;9.45;;;15.90;70.10;;;;;;5003536;28;20030;-62
2020/12/26 12:44:34;;;;;;;20.38;6.90;;;15.90;69.70;;;;;;4998179;28;20035;-64
2020/12/26 12:47:01;;;;;;;14.15;6.72;;;15.90;70.00;;;;;;4995708;28;20090;-64
2020/12/26 12:49:27;;;;;;;16.52;6.22;;;15.90;69.90;;;;;;5000981;28;20689;-64
2020/12/26 12:51:53;;;;;;;26.27;10.95;;;16.00;70.30;;;;;;5004637;28;20109;-63
2020/12/26 12:54:19;;;;;;;101.78;44.83;;;16.00;69.80;;;;;;5012922;28;20121;-64
2020/12/26 12:56:44;;;;;;;41.78;17.27;;;15.90;69.80;;;;;;5008241;28;20025;-65
2020/12/26 12:59:10;;;;;;;28.65;13.82;;;16.00;69.90;;;;;;5014208;28;20033;-65
2020/12/26 13:01:35;;;;;;;420.23;233.50;;;16.00;69.20;;;;;;5001060;28;20042;-63
2020/12/26 13:04:02;;;;;;;176.40;94.82;;;15.90;69.10;;;;;;5005428;28;20034;-64
2020/12/26 13:06:27;;;;;;;149.57;81.32;;;15.90;69.10;;;;;;5011798;28;20021;-64
2020/12/26 13:08:53;;;;;;;102.78;53.03;;;16.00;69.20;;;;;;5012274;28;20014;-65
2020/12/26 13:11:18;;;;;;;90.60;45.95;;;16.00;69.00;;;;;;5008466;28;20410;-64
2020/12/26 13:13:44;;;;;;;61.70;33.22;;;15.90;68.60;;;;;;5004454;28;20098;-64
2020/12/26 13:16:10;;;;;;;81.78;45.40;;;15.90;67.80;;;;;;5001275;28;20061;-64
2020/12/26 13:18:35;;;;;;;90.85;57.97;;;15.90;68.50;;;;;;5012142;28;20119;-64
2020/12/26 13:21:01;;;;;;;60.72;33.25;;;15.90;68.60;;;;;;5001826;28;20050;-63
2020/12/26 13:23:27;;;;;;;69.78;37.13;;;16.00;68.60;;;;;;5001255;28;20104;-63
2020/12/26 13:25:52;;;;;;;58.50;34.97;;;16.00;68.20;;;;;;5005052;28;20417;-64
2020/12/26 13:28:18;;;;;;;55.85;33.50;;;15.90;68.10;;;;;;4994306;28;20038;-64
2020/12/26 13:30:45;;;;;;;47.20;30.10;;;15.90;68.20;;;;;;4992722;28;20032;-64
2020/12/26 13:33:11;;;;;;;51.38;28.65;;;15.90;67.80;;;;;;4996360;28;20061;-64
2020/12/26 13:35:36;;;;;;;39.67;23.83;;;15.90;68.30;;;;;;5007918;28;20038;-64
2020/12/26 13:38:02;;;;;;;36.90;20.67;;;15.90;67.60;;;;;;5000329;28;20032;-64
2020/12/26 13:40:28;;;;;;;35.30;21.50;;;15.90;67.00;;;;;;5002305;28;20117;-63
2020/12/26 13:42:53;;;;;;;33.10;18.88;;;15.90;68.00;;;;;;4991208;28;20064;-64
2020/12/26 13:45:19;;;;;;;49.30;36.22;;;15.80;67.80;;;;;;5003652;28;20044;-66
2020/12/26 13:47:44;;;;;;;49.25;31.60;;;15.80;67.30;;;;;;5005472;28;20034;-68
2020/12/26 13:50:10;;;;;;;46.85;26.10;;;15.80;67.50;;;;;;5010897;28;20512;-65
2020/12/26 13:52:35;;;;;;;41.85;22.88;;;15.90;68.20;;;;;;5001880;28;20064;-66
2020/12/26 13:55:01;;;;;;;26.10;15.60;;;15.90;68.00;;;;;;5010277;28;20084;-66
2020/12/26 13:57:26;;;;;;;29.85;16.92;;;15.90;66.80;;;;;;5005433;28;20021;-63
2020/12/26 13:59:52;;;;;;;27.63;14.98;;;15.90;66.90;;;;;;5011513;28;20445;-65
2020/12/26 14:02:18;;;;;;;27.85;13.98;;;16.00;66.30;;;;;;5011248;28;20031;-65
2020/12/26 14:04:43;;;;;;;31.08;13.75;;;16.10;65.40;;;;;;5002718;28;20116;-66
2020/12/26 14:07:09;;;;;;;34.17;19.20;;;16.10;65.20;;;;;;5003919;28;20021;-65
2020/12/26 14:09:35;;;;;;;31.02;15.75;;;16.20;65.50;;;;;;4995805;28;20026;-66
2020/12/26 14:12:01;;;;;;;25.45;14.30;;;16.10;64.70;;;;;;4997275;28;20034;-65
2020/12/26 14:14:27;;;;;;;20.15;12.25;;;16.20;65.20;;;;;;5002836;28;20109;-66
2020/12/26 14:16:52;;;;;;;24.77;12.90;;;16.10;65.00;;;;;;5003536;28;20118;-65
2020/12/26 14:19:18;;;;;;;26.08;12.55;;;16.10;65.30;;;;;;5000213;28;20072;-65
2020/12/26 14:21:43;;;;;;;22.25;10.70;;;16.20;65.30;;;;;;4997333;28;20026;-64
2020/12/26 14:24:09;;;;;;;20.42;11.52;;;16.10;65.00;;;;;;5000690;28;20284;-67
2020/12/26 14:26:34;;;;;;;17.30;10.07;;;16.10;65.10;;;;;;5000281;28;20057;-65
2020/12/26 14:29:00;;;;;;;19.27;10.32;;;16.10;65.40;;;;;;4999344;28;20034;-65
2020/12/26 14:31:25;;;;;;;17.00;10.23;;;16.10;64.80;;;;;;4989028;28;21582;-66
2020/12/26 14:33:52;;;;;;;18.05;8.68;;;16.10;64.80;;;;;;4998135;28;20717;-65
2020/12/26 14:36:25;;;;;;;16.83;8.07;;;16.10;64.70;;;;;;5008224;28;20022;-65
2020/12/26 14:38:51;;;;;;;17.50;8.93;;;16.10;64.30;;;;;;5016206;28;20037;-65
2020/12/26 14:41:17;;;;;;;14.55;9.30;;;16.10;64.60;;;;;;5008148;28;20034;-64
2020/12/26 14:43:42;;;;;;;14.10;8.38;;;16.20;65.10;;;;;;4997538;28;20034;-65
2020/12/26 14:46:08;;;;;;;15.57;8.27;;;16.20;65.40;;;;;;5000738;28;20025;-68
2020/12/26 14:48:34;;;;;;;27.67;14.10;;;16.20;65.80;;;;;;5000567;28;20014;-66
2020/12/26 14:50:59;;;;;;;24.38;12.80;;;16.20;69.10;;;;;;5004870;28;20209;-63
2020/12/26 14:53:25;;;;;;;15.43;7.20;;;16.30;68.80;;;;;;5008028;28;20014;-66
2020/12/26 14:55:51;;;;;;;15.88;7.05;;;16.30;65.50;;;;;;5003619;28;20034;-65
2020/12/26 14:58:16;;;;;;;14.80;7.55;;;16.10;65.10;;;;;;4994532;28;20438;-63
2020/12/26 15:00:42;;;;;;;36.42;20.63;;;16.10;64.30;;;;;;4997475;28;20058;-64
2020/12/26 15:03:08;;;;;;;33.13;15.75;;;16.00;64.20;;;;;;5007505;28;20057;-64
2020/12/26 15:05:35;;;;;;;24.48;11.20;;;16.10;65.20;;;;;;5007625;28;20052;-67
2020/12/26 15:08:01;;;;;;;18.40;10.55;;;16.10;65.20;;;;;;5006155;28;20038;-66
2020/12/26 15:10:26;;;;;;;399.25;252.73;;;16.10;65.40;;;;;;5003579;28;20033;-65
2020/12/26 15:12:52;;;;;;;99.75;54.17;;;16.10;65.80;;;;;;5000303;28;20019;-64
2020/12/26 15:15:18;;;;;;;52.58;32.20;;;16.10;66.10;;;;;;5011509;28;20030;-64
2020/12/26 15:17:44;;;;;;;44.47;24.38;;;16.10;65.80;;;;;;5003957;28;20109;-66
2020/12/26 15:20:09;;;;;;;38.88;21.40;;;16.10;66.20;;;;;;5003016;28;20129;-67
2020/12/26 15:25:15;;;;;;;37.00;18.83;;;16.00;66.30;;;;;;5028388;23;20052;-64
2020/12/26 15:27:41;;;;;;;39.10;16.20;;;16.10;66.60;;;;;;5011162;28;20304;-70
2020/12/26 15:30:06;;;;;;;48.80;21.90;;;16.10;66.50;;;;;;5022938;28;20024;-70
2020/12/26 15:32:31;;;;;;;41.92;17.55;;;16.00;66.40;;;;;;5005788;28;20024;-64
2020/12/26 15:34:57;;;;;;;35.70;17.25;;;16.00;66.60;;;;;;5025771;28;20034;-66
2020/12/26 15:37:22;;;;;;;32.50;15.35;;;16.10;67.30;;;;;;5016500;28;20621;-67
2020/12/26 15:39:48;;;;;;;29.05;13.95;;;16.10;67.40;;;;;;5023719;28;20106;-65
2020/12/26 15:42:14;;;;;;;30.15;17.00;;;16.00;66.90;;;;;;5017670;28;20021;-66
2020/12/26 15:44:39;;;;;;;23.20;12.55;;;16.00;67.00;;;;;;5028579;28;20060;-64
2020/12/26 15:47:05;;;;;;;21.27;10.30;;;15.90;66.90;;;;;;5015949;28;20027;-65
2020/12/26 15:49:30;;;;;;;26.00;11.25;;;16.00;67.30;;;;;;5008105;28;20070;-65
2020/12/26 15:51:56;;;;;;;23.45;10.90;;;16.00;67.60;;;;;;5009578;28;20021;-68
2020/12/26 15:54:21;;;;;;;19.95;10.30;;;16.00;68.00;;;;;;5008537;28;20545;-66
2020/12/26 15:56:47;;;;;;;20.20;9.05;;;16.00;68.10;;;;;;5029036;28;20021;-64
2020/12/26 15:59:12;;;;;;;16.60;8.45;;;16.00;66.80;;;;;;5011132;28;20052;-63
2020/12/26 16:01:38;;;;;;;18.83;8.98;;;15.90;66.60;;;;;;4996926;28;20040;-66
2020/12/26 16:04:03;;;;;;;16.33;7.65;;;15.90;66.80;;;;;;5023317;28;20044;-67
2020/12/26 16:06:31;;;;;;;16.60;8.00;;;15.90;66.80;;;;;;5009241;28;20017;-64
2020/12/26 16:08:57;;;;;;;18.83;7.55;;;15.90;66.30;;;;;;5013311;28;20067;-64
2020/12/26 16:11:27;;;;;;;15.63;6.95;;;15.80;66.20;;;;;;5031729;28;20033;-63
2020/12/26 16:13:52;;;;;;;29.10;8.02;;;15.90;66.00;;;;;;5004990;28;20025;-65
2020/12/26 16:16:18;;;;;;;17.85;7.10;;;15.90;65.30;;;;;;5007546;28;20414;-69
2020/12/26 16:18:43;;;;;;;18.17;7.03;;;15.80;65.00;;;;;;5032557;28;20095;-66
2020/12/26 16:21:10;;;;;;;18.35;7.00;;;15.80;64.90;;;;;;5040184;28;20183;-65
2020/12/26 16:23:37;;;;;;;16.85;6.53;;;15.90;65.30;;;;;;5033010;28;20017;-65
2020/12/26 16:26:03;;;;;;;15.82;6.18;;;15.90;65.40;;;;;;5016378;28;20432;-64
2020/12/26 16:28:29;;;;;;;13.40;5.75;;;15.90;65.80;;;;;;5037409;28;20025;-64
2020/12/26 16:30:54;;;;;;;17.70;6.25;;;15.90;65.80;;;;;;5031234;28;20477;-65
2020/12/26 16:33:20;;;;;;;13.35;5.30;;;15.90;65.90;;;;;;5042028;28;20025;-64
2020/12/26 16:35:47;;;;;;;10.23;5.00;;;15.90;65.90;;;;;;5051056;28;20017;-67
2020/12/26 16:38:14;;;;;;;10.35;5.10;;;15.90;66.00;;;;;;5015553;28;20025;-65
2020/12/26 16:40:39;;;;;;;11.50;4.85;;;15.90;66.00;;;;;;5027065;28;20092;-64
2020/12/26 16:43:05;;;;;;;10.73;5.05;;;15.80;65.60;;;;;;5031823;28;20121;-63
2020/12/26 16:45:31;;;;;;;12.57;4.50;;;15.90;66.20;;;;;;5011417;28;20018;-64
2020/12/26 16:47:57;;;;;;;20.80;5.57;;;15.80;65.70;;;;;;5012193;28;20077;-65
2020/12/26 16:50:23;;;;;;;10.85;4.70;;;15.80;65.80;;;;;;5023779;28;20175;-67
2020/12/26 16:52:49;;;;;;;11.52;4.38;;;15.70;65.50;;;;;;5007969;28;20056;-66
2020/12/26 16:55:14;;;;;;;11.48;4.32;;;15.80;65.70;;;;;;4993096;28;20112;-68
2020/12/26 16:57:40;;;;;;;10.20;3.50;;;15.70;65.90;;;;;;5022868;28;20057;-64
2020/12/26 17:00:07;;;;;;;11.13;4.35;;;15.70;65.70;;;;;;4992225;28;20503;-64
2020/12/26 17:02:33;;;;;;;12.98;4.47;;;15.70;65.70;;;;;;5004252;28;20657;-66
2020/12/26 17:04:58;;;;;;;12.60;4.90;;;15.60;65.70;;;;;;5002652;28;20025;-67
2020/12/26 17:07:27;;;;;;;14.27;4.97;;;15.70;65.30;;;;;;5022232;28;20709;-68
2020/12/26 17:09:53;;;;;;;15.60;5.47;;;15.60;65.20;;;;;;4998518;28;20716;-65
2020/12/26 17:12:19;;;;;;;18.40;8.77;;;15.50;65.10;;;;;;5015917;28;20034;-65
2020/12/26 17:14:45;;;;;;;14.43;6.00;;;15.60;65.30;;;;;;5029327;28;20025;-69
2020/12/26 17:17:10;;;;;;;13.65;5.20;;;15.60;65.40;;;;;;5026603;28;20032;-71
2020/12/26 17:19:36;;;;;;;10.52;4.70;;;15.60;66.00;;;;;;5004854;28;20029;-64
2020/12/26 17:22:01;;;;;;;10.27;4.32;;;15.70;65.50;;;;;;5035594;28;20385;-65
2020/12/26 17:24:27;;;;;;;15.05;5.05;;;15.70;65.00;;;;;;5003191;28;20036;-69
2020/12/26 17:26:53;;;;;;;10.68;4.15;;;15.80;65.50;;;;;;5029731;28;20029;-62
2020/12/26 17:29:18;;;;;;;12.75;4.70;;;15.80;65.00;;;;;;5029410;28;20029;-64
2020/12/26 17:31:44;;;;;;;8.93;3.90;;;15.80;64.70;;;;;;5031388;28;20040;-64
2020/12/26 17:34:09;;;;;;;13.05;3.72;;;15.80;64.40;;;;;;5021540;28;20065;-69
2020/12/26 17:36:35;;;;;;;13.30;3.88;;;15.80;64.40;;;;;;5003697;28;20470;-64
2020/12/26 17:39:00;;;;;;;12.15;4.30;;;15.90;64.80;;;;;;5018575;28;20076;-63
2020/12/26 17:41:30;;;;;;;9.40;3.45;;;16.00;64.80;;;;;;5029729;28;20079;-65
2020/12/26 17:43:56;;;;;;;10.43;3.20;;;16.00;65.00;;;;;;5021569;28;20022;-67
2020/12/26 17:46:24;;;;;;;7.88;2.95;;;16.00;64.60;;;;;;5034757;28;20029;-64
2020/12/26 17:48:50;;;;;;;8.48;3.00;;;16.00;64.40;;;;;;5031380;28;20025;-67
2020/12/26 17:51:17;;;;;;;8.02;3.20;;;16.10;64.90;;;;;;5012220;28;20031;-67
2020/12/26 17:53:44;;;;;;;6.47;2.80;;;16.10;65.10;;;;;;5010363;28;20022;-65
2020/12/26 17:56:09;;;;;;;9.93;3.08;;;16.10;65.00;;;;;;5011971;28;20053;-67
2020/12/26 17:58:36;;;;;;;8.57;2.67;;;16.10;64.20;;;;;;5012605;28;20064;-67
2020/12/26 18:01:03;;;;;;;7.70;2.50;;;16.10;64.40;;;;;;5003023;28;20112;-67
2020/12/26 18:03:29;;;;;;;13.13;3.05;;;16.10;64.60;;;;;;5011575;28;20707;-69
2020/12/26 18:05:55;;;;;;;6.93;2.70;;;16.00;64.10;;;;;;5033550;28;20057;-65
2020/12/26 18:08:21;;;;;;;6.65;2.42;;;16.00;63.80;;;;;;5048719;28;20017;-71
2020/12/26 18:10:46;;;;;;;9.15;2.80;;;16.10;64.70;;;;;;5022413;28;20502;-65
2020/12/26 18:13:12;;;;;;;7.25;2.40;;;16.10;64.40;;;;;;5007857;28;20018;-65
2020/12/26 18:15:37;;;;;;;8.25;2.70;;;16.10;63.70;;;;;;5007027;28;20457;-65
2020/12/26 18:18:03;;;;;;;9.27;2.50;;;16.10;64.10;;;;;;5007679;28;20034;-65
2020/12/26 18:20:28;;;;;;;5.28;1.98;;;16.10;62.90;;;;;;5000179;28;20033;-65
2020/12/26 18:22:54;;;;;;;8.02;2.30;;;16.10;63.50;;;;;;5002846;28;20033;-65
2020/12/26 18:25:20;;;;;;;9.43;2.53;;;16.10;63.80;;;;;;5026532;28;20030;-66
2020/12/26 18:27:48;;;;;;;5.32;2.15;;;16.10;64.00;;;;;;5028920;28;20038;-66
2020/12/26 18:30:15;;;;;;;7.15;2.53;;;16.10;64.20;;;;;;5022442;28;20117;-66
2020/12/26 18:32:40;;;;;;;5.93;2.20;;;16.10;64.20;;;;;;5010067;28;20030;-66
2020/12/26 18:35:06;;;;;;;7.68;2.40;;;16.20;64.70;;;;;;5022643;28;20533;-66
2020/12/26 18:37:32;;;;;;;7.95;2.50;;;16.10;64.20;;;;;;5019684;28;20040;-64
2020/12/26 18:39:57;;;;;;;9.38;2.90;;;16.20;65.30;;;;;;5012075;28;20032;-66
2020/12/26 18:42:24;;;;;;;8.68;4.65;;;16.10;65.50;;;;;;5007315;28;20530;-66
2020/12/26 18:44:52;;;;;;;17.83;10.15;;;16.10;65.80;;;;;;5027178;28;20068;-66
2020/12/26 18:47:18;;;;;;;162.45;85.00;;;16.10;66.30;;;;;;5012882;28;20022;-66
2020/12/26 18:49:44;;;;;;;126.90;64.35;;;16.10;66.70;;;;;;5000089;28;20116;-66
2020/12/26 18:52:10;;;;;;;48.25;23.50;;;16.10;67.00;;;;;;5028999;28;20125;-69
2020/12/26 18:54:35;;;;;;;29.58;16.90;;;16.20;67.30;;;;;;5007761;28;20079;-67
2020/12/26 18:57:01;;;;;;;118.13;64.07;;;16.10;67.00;;;;;;5011229;28;20116;-68
2020/12/26 18:59:30;;;;;;;85.50;44.15;;;16.20;67.40;;;;;;5001885;28;20053;-66
2020/12/26 19:01:57;;;;;;;56.60;31.25;;;16.00;66.50;;;;;;5012894;28;20029;-67
2020/12/26 19:04:24;;;;;;;460.40;278.30;;;16.00;65.90;;;;;;5030213;28;20482;-66
2020/12/26 19:06:49;;;;;;;404.58;252.00;;;16.00;67.00;;;;;;5029419;28;20083;-68
2020/12/26 19:09:15;;;;;;;209.85;118.00;;;16.00;66.30;;;;;;5030654;28;20018;-67
2020/12/26 19:11:40;;;;;;;168.75;104.90;;;15.90;66.40;;;;;;5012538;28;20034;-66
2020/12/26 19:14:06;;;;;;;124.43;71.75;;;15.90;66.50;;;;;;5012461;28;20060;-68
2020/12/26 19:16:31;;;;;;;109.80;61.65;;;15.90;66.00;;;;;;4997710;28;20570;-65
2020/12/26 19:18:57;;;;;;;100.72;56.58;;;15.90;65.40;;;;;;5008819;28;20033;-66
2020/12/26 19:21:23;;;;;;;76.63;44.15;;;16.00;65.70;;;;;;5015089;28;20036;-65
2020/12/26 19:23:48;;;;;;;60.72;35.65;;;15.90;65.10;;;;;;5010793;28;20038;-67
2020/12/26 19:26:20;;;;;;;60.60;34.15;;;15.90;64.60;;;;;;5016286;28;20113;-69
2020/12/26 19:28:46;;;;;;;;;;;16.00;64.90;;;;;;5018272;28;20022;-66
2020/12/26 19:31:12;;;;;;;48.78;28.80;;;16.00;64.30;;;;;;5020117;28;19959;-66
2020/12/26 19:33:38;;;;;;;42.78;25.83;;;16.00;64.00;;;;;;5001271;28;20053;-67
2020/12/26 19:36:04;;;;;;;44.70;25.25;;;16.00;64.30;;;;;;5020263;28;20882;-65
2020/12/26 19:38:29;;;;;;;43.42;25.08;;;16.00;64.30;;;;;;5001009;28;20021;-69
2020/12/26 19:40:55;;;;;;;40.70;23.15;;;16.00;64.70;;;;;;5000283;28;20529;-67
2020/12/26 19:43:20;;;;;;;38.35;21.77;;;16.10;65.10;;;;;;5001658;28;20038;-67
2020/12/26 19:45:46;;;;;;;34.78;21.00;;;16.10;64.90;;;;;;5022835;28;20026;-65
2020/12/26 19:48:12;;;;;;;33.22;19.15;;;16.00;64.60;;;;;;5004754;28;20113;-69
2020/12/26 19:50:37;;;;;;;31.70;18.55;;;16.00;64.90;;;;;;5013987;28;20529;-69